sensor_id;sensor_type;location;lat;lon;timestamp;temperature;humidity
14901;DHT22;7542;49.078;9.194;2022-09-13T00:00:03;19.80;57.50
14901;DHT22;7542;49.078;9.194;2022-09-13T00:01:07;19.90;57.70
14901;DHT22;7542;49.078;9.194;2022-09-13T00:02:08;19.90;57.70
14901;DHT22;7542;49.078;9.194;2022-09-13T00:03:11;19.80;57.70
14901;DHT22;7542;49.078;9.194;2022-09-13T00:04:13;20.30;58.10
14901;DHT22;7542;49.078;9.194;2022-09-13T00:05:15;21.30;58.60
14901;DHT22;7542;49.078;9.194;2022-09-13T00:06:18;19.80;57.70
14901;DHT22;7542;49.078;9.194;2022-09-13T00:07:20;20.70;58.40
14901;DHT22;7542;49.078;9.194;2022-09-13T00:08:22;23.40;60.00
14901;DHT22;7542;49.078;9.194;2022-09-13T00:09:24;19.80;57.80
14901;DHT22;7542;49.078;9.194;2022-09-13T00:10:26;23.90;60.40
14901;DHT22;7542;49.078;9.194;2022-09-13T00:11:29;19.70;57.90
14901;DHT22;7542;49.078;9.194;2022-09-13T00:12:31;19.70;58.00
14901;DHT22;7542;49.078;9.194;2022-09-13T00:13:33;22.20;59.30
14901;DHT22;7542;49.078;9.194;2022-09-13T00:14:35;19.70;57.90
14901;DHT22;7542;49.078;9.194;2022-09-13T00:15:47;19.70;58.00
14901;DHT22;7542;49.078;9.194;2022-09-13T00:16:50;19.70;57.90
14901;DHT22;7542;49.078;9.194;2022-09-13T00:17:52;19.70;58.00
14901;DHT22;7542;49.078;9.194;2022-09-13T00:18:54;19.70;58.00
14901;DHT22;7542;49.078;9.194;2022-09-13T00:19:57;22.50;59.60
14901;DHT22;7542;49.078;9.194;2022-09-13T00:21:10;21.80;59.10
14901;DHT22;7542;49.078;9.194;2022-09-13T00:22:14;19.70;58.00
14901;DHT22;7542;49.078;9.194;2022-09-13T00:23:16;19.70;58.00
14901;DHT22;7542;49.078;9.194;2022-09-13T00:24:17;19.70;58.10
14901;DHT22;7542;49.078;9.194;2022-09-13T00:25:20;19.70;58.10
14901;DHT22;7542;49.078;9.194;2022-09-13T00:26:24;20.90;58.80
14901;DHT22;7542;49.078;9.194;2022-09-13T00:27:27;20.90;58.80
14901;DHT22;7542;49.078;9.194;2022-09-13T00:28:29;20.60;58.50
14901;DHT22;7542;49.078;9.194;2022-09-13T00:29:31;20.40;58.40
14901;DHT22;7542;49.078;9.194;2022-09-13T00:30:33;19.70;58.10
14901;DHT22;7542;49.078;9.194;2022-09-13T00:31:35;21.40;59.10
14901;DHT22;7542;49.078;9.194;2022-09-13T00:32:37;19.70;58.10
14901;DHT22;7542;49.078;9.194;2022-09-13T00:33:39;23.10;60.10
14901;DHT22;7542;49.078;9.194;2022-09-13T00:34:41;21.90;59.40
14901;DHT22;7542;49.078;9.194;2022-09-13T00:35:43;21.40;59.10
14901;DHT22;7542;49.078;9.194;2022-09-13T00:36:44;23.80;60.50
14901;DHT22;7542;49.078;9.194;2022-09-13T00:37:46;22.10;59.60
14901;DHT22;7542;49.078;9.194;2022-09-13T00:38:48;19.80;58.20
14901;DHT22;7542;49.078;9.194;2022-09-13T00:39:50;19.60;58.10
14901;DHT22;7542;49.078;9.194;2022-09-13T00:40:51;19.70;58.30
14901;DHT22;7542;49.078;9.194;2022-09-13T00:41:53;19.70;58.30
14901;DHT22;7542;49.078;9.194;2022-09-13T00:42:55;23.10;60.30
14901;DHT22;7542;49.078;9.194;2022-09-13T00:43:59;23.90;60.80
14901;DHT22;7542;49.078;9.194;2022-09-13T00:46:07;19.70;58.40
14901;DHT22;7542;49.078;9.194;2022-09-13T00:47:14;19.60;58.20
14901;DHT22;7542;49.078;9.194;2022-09-13T00:48:23;22.50;60.10
14901;DHT22;7542;49.078;9.194;2022-09-13T00:49:34;19.90;58.60
14901;DHT22;7542;49.078;9.194;2022-09-13T00:50:40;23.50;60.60
14901;DHT22;7542;49.078;9.194;2022-09-13T00:51:50;22.10;59.90
14901;DHT22;7542;49.078;9.194;2022-09-13T00:54:27;20.30;59.00
14901;DHT22;7542;49.078;9.194;2022-09-13T00:56:58;19.60;58.60
14901;DHT22;7542;49.078;9.194;2022-09-13T00:58:29;19.70;58.70
14901;DHT22;7542;49.078;9.194;2022-09-13T00:59:44;19.60;58.70
14901;DHT22;7542;49.078;9.194;2022-09-13T01:00:54;22.00;60.10
14901;DHT22;7542;49.078;9.194;2022-09-13T01:02:00;19.50;58.60
14901;DHT22;7542;49.078;9.194;2022-09-13T01:03:08;22.80;60.60
14901;DHT22;7542;49.078;9.194;2022-09-13T01:04:14;23.10;60.80
14901;DHT22;7542;49.078;9.194;2022-09-13T01:05:24;19.50;58.60
14901;DHT22;7542;49.078;9.194;2022-09-13T01:06:32;21.50;59.90
14901;DHT22;7542;49.078;9.194;2022-09-13T01:07:37;20.00;58.90
14901;DHT22;7542;49.078;9.194;2022-09-13T01:08:40;19.50;58.70
14901;DHT22;7542;49.078;9.194;2022-09-13T01:09:48;19.40;58.60
14901;DHT22;7542;49.078;9.194;2022-09-13T01:10:53;20.00;58.90
14901;DHT22;7542;49.078;9.194;2022-09-13T01:12:05;19.50;58.80
14901;DHT22;7542;49.078;9.194;2022-09-13T01:13:18;19.50;58.70
14901;DHT22;7542;49.078;9.194;2022-09-13T01:14:23;20.80;59.50
14901;DHT22;7542;49.078;9.194;2022-09-13T01:15:25;20.20;59.10
14901;DHT22;7542;49.078;9.194;2022-09-13T01:16:27;21.20;59.70
14901;DHT22;7542;49.078;9.194;2022-09-13T01:17:30;19.40;58.60
14901;DHT22;7542;49.078;9.194;2022-09-13T01:18:34;21.70;60.10
14901;DHT22;7542;49.078;9.194;2022-09-13T01:19:36;21.20;59.70
14901;DHT22;7542;49.078;9.194;2022-09-13T01:22:43;19.50;58.90
14901;DHT22;7542;49.078;9.194;2022-09-13T01:27:21;19.50;59.10
14901;DHT22;7542;49.078;9.194;2022-09-13T01:31:28;19.50;59.10
14901;DHT22;7542;49.078;9.194;2022-09-13T01:44:36;19.30;59.00
14901;DHT22;7542;49.078;9.194;2022-09-13T01:47:27;19.40;59.10
14901;DHT22;7542;49.078;9.194;2022-09-13T01:48:51;22.70;61.10
14901;DHT22;7542;49.078;9.194;2022-09-13T01:51:53;19.40;59.20
14901;DHT22;7542;49.078;9.194;2022-09-13T01:54:36;19.30;59.20
14901;DHT22;7542;49.078;9.194;2022-09-13T01:59:03;19.30;59.20
14901;DHT22;7542;49.078;9.194;2022-09-13T02:00:15;19.30;59.30
14901;DHT22;7542;49.078;9.194;2022-09-13T02:01:35;19.30;59.30
14901;DHT22;7542;49.078;9.194;2022-09-13T02:02:45;19.30;59.30
14901;DHT22;7542;49.078;9.194;2022-09-13T02:03:55;19.30;59.30
14901;DHT22;7542;49.078;9.194;2022-09-13T02:05:14;22.90;61.50
14901;DHT22;7542;49.078;9.194;2022-09-13T02:06:27;19.30;59.40
14901;DHT22;7542;49.078;9.194;2022-09-13T02:07:37;19.30;59.40
14901;DHT22;7542;49.078;9.194;2022-09-13T02:08:53;19.30;59.40
14901;DHT22;7542;49.078;9.194;2022-09-13T02:10:02;19.30;59.50
14901;DHT22;7542;49.078;9.194;2022-09-13T02:11:14;19.20;59.40
14901;DHT22;7542;49.078;9.194;2022-09-13T02:12:21;22.00;61.10
14901;DHT22;7542;49.078;9.194;2022-09-13T02:13:32;21.20;60.70
14901;DHT22;7542;49.078;9.194;2022-09-13T02:14:41;19.20;59.50
14901;DHT22;7542;49.078;9.194;2022-09-13T02:15:46;19.10;59.50
14901;DHT22;7542;49.078;9.194;2022-09-13T02:17:06;19.20;59.50
14901;DHT22;7542;49.078;9.194;2022-09-13T02:18:16;19.20;59.50
14901;DHT22;7542;49.078;9.194;2022-09-13T02:19:26;19.80;60.00
14901;DHT22;7542;49.078;9.194;2022-09-13T02:20:42;19.20;59.60
14901;DHT22;7542;49.078;9.194;2022-09-13T02:21:50;19.40;59.70
14901;DHT22;7542;49.078;9.194;2022-09-13T02:23:02;23.10;62.00
14901;DHT22;7542;49.078;9.194;2022-09-13T02:24:29;21.50;61.10
14901;DHT22;7542;49.078;9.194;2022-09-13T02:25:35;21.10;60.90
14901;DHT22;7542;49.078;9.194;2022-09-13T02:26:40;19.10;59.70
14901;DHT22;7542;49.078;9.194;2022-09-13T02:27:51;23.50;62.30
14901;DHT22;7542;49.078;9.194;2022-09-13T02:28:59;19.10;59.70
14901;DHT22;7542;49.078;9.194;2022-09-13T02:30:07;23.50;62.40
14901;DHT22;7542;49.078;9.194;2022-09-13T02:31:11;19.10;59.80
14901;DHT22;7542;49.078;9.194;2022-09-13T02:32:40;19.10;59.80
14901;DHT22;7542;49.078;9.194;2022-09-13T02:33:52;19.10;59.90
14901;DHT22;7542;49.078;9.194;2022-09-13T02:35:13;19.10;59.80
14901;DHT22;7542;49.078;9.194;2022-09-13T02:36:23;19.10;59.90
14901;DHT22;7542;49.078;9.194;2022-09-13T02:37:33;19.10;59.90
14901;DHT22;7542;49.078;9.194;2022-09-13T02:39:03;22.00;61.60
14901;DHT22;7542;49.078;9.194;2022-09-13T02:40:16;19.10;60.00
14901;DHT22;7542;49.078;9.194;2022-09-13T02:41:50;19.10;60.00
14901;DHT22;7542;49.078;9.194;2022-09-13T02:43:03;19.00;60.00
14901;DHT22;7542;49.078;9.194;2022-09-13T02:44:11;19.00;60.10
14901;DHT22;7542;49.078;9.194;2022-09-13T02:45:19;19.00;60.10
14901;DHT22;7542;49.078;9.194;2022-09-13T02:46:28;19.00;60.20
14901;DHT22;7542;49.078;9.194;2022-09-13T02:48:06;19.00;60.20
14901;DHT22;7542;49.078;9.194;2022-09-13T02:51:07;19.00;60.30
14901;DHT22;7542;49.078;9.194;2022-09-13T02:52:42;19.00;60.20
14901;DHT22;7542;49.078;9.194;2022-09-13T02:54:52;21.50;61.90
14901;DHT22;7542;49.078;9.194;2022-09-13T02:57:32;18.90;60.40
14901;DHT22;7542;49.078;9.194;2022-09-13T03:00:08;19.30;60.70
14901;DHT22;7542;49.078;9.194;2022-09-13T03:01:10;18.90;60.40
14901;DHT22;7542;49.078;9.194;2022-09-13T03:02:15;18.90;60.40
14901;DHT22;7542;49.078;9.194;2022-09-13T03:03:23;18.90;60.50
14901;DHT22;7542;49.078;9.194;2022-09-13T03:04:26;21.70;62.20
14901;DHT22;7542;49.078;9.194;2022-09-13T03:05:30;18.90;60.50
14901;DHT22;7542;49.078;9.194;2022-09-13T03:06:32;19.00;60.50
14901;DHT22;7542;49.078;9.194;2022-09-13T03:07:34;18.90;60.50
14901;DHT22;7542;49.078;9.194;2022-09-13T03:08:36;18.90;60.50
14901;DHT22;7542;49.078;9.194;2022-09-13T03:09:47;21.10;61.90
14901;DHT22;7542;49.078;9.194;2022-09-13T03:11:14;18.90;60.60
14901;DHT22;7542;49.078;9.194;2022-09-13T03:12:37;18.90;60.70
14901;DHT22;7542;49.078;9.194;2022-09-13T03:15:53;18.90;60.80
14901;DHT22;7542;49.078;9.194;2022-09-13T03:20:49;18.80;61.00
14901;DHT22;7542;49.078;9.194;2022-09-13T03:27:14;18.80;61.10
14901;DHT22;7542;49.078;9.194;2022-09-13T03:29:57;18.70;61.20
14901;DHT22;7542;49.078;9.194;2022-09-13T03:31:25;21.10;62.70
14901;DHT22;7542;49.078;9.194;2022-09-13T03:32:51;18.70;61.30
14901;DHT22;7542;49.078;9.194;2022-09-13T03:34:13;18.70;61.30
14901;DHT22;7542;49.078;9.194;2022-09-13T03:37:56;18.70;61.40
14901;DHT22;7542;49.078;9.194;2022-09-13T03:41:53;18.60;61.60
14901;DHT22;7542;49.078;9.194;2022-09-13T03:43:09;21.90;63.70
14901;DHT22;7542;49.078;9.194;2022-09-13T03:44:17;18.40;61.60
14901;DHT22;7542;49.078;9.194;2022-09-13T03:45:27;20.80;63.10
14901;DHT22;7542;49.078;9.194;2022-09-13T03:46:35;21.50;63.70
14901;DHT22;7542;49.078;9.194;2022-09-13T03:47:42;20.70;63.20
14901;DHT22;7542;49.078;9.194;2022-09-13T03:48:48;20.70;63.20
14901;DHT22;7542;49.078;9.194;2022-09-13T03:49:52;21.80;63.90
14901;DHT22;7542;49.078;9.194;2022-09-13T03:50:57;21.30;63.70
14901;DHT22;7542;49.078;9.194;2022-09-13T03:51:59;21.10;63.70
14901;DHT22;7542;49.078;9.194;2022-09-13T03:53:08;21.70;64.00
14901;DHT22;7542;49.078;9.194;2022-09-13T03:54:17;21.70;64.10
14901;DHT22;7542;49.078;9.194;2022-09-13T03:55:22;18.50;62.30
14901;DHT22;7542;49.078;9.194;2022-09-13T03:56:25;18.50;62.30
14901;DHT22;7542;49.078;9.194;2022-09-13T03:57:27;18.40;62.20
14901;DHT22;7542;49.078;9.194;2022-09-13T03:58:29;19.60;63.10
14901;DHT22;7542;49.078;9.194;2022-09-13T03:59:30;18.40;62.40
14901;DHT22;7542;49.078;9.194;2022-09-13T04:00:32;18.40;62.40
14901;DHT22;7542;49.078;9.194;2022-09-13T04:01:34;18.40;62.50
14901;DHT22;7542;49.078;9.194;2022-09-13T04:02:36;19.70;63.30
14901;DHT22;7542;49.078;9.194;2022-09-13T04:03:38;22.80;65.10
14901;DHT22;7542;49.078;9.194;2022-09-13T04:04:41;18.40;62.70
14901;DHT22;7542;49.078;9.194;2022-09-13T04:05:45;18.40;62.70
14901;DHT22;7542;49.078;9.194;2022-09-13T04:06:47;22.00;64.80
14901;DHT22;7542;49.078;9.194;2022-09-13T04:07:48;18.30;62.80
14901;DHT22;7542;49.078;9.194;2022-09-13T04:08:50;18.30;62.90
14901;DHT22;7542;49.078;9.194;2022-09-13T04:09:52;22.80;65.40
14901;DHT22;7542;49.078;9.194;2022-09-13T04:10:54;18.30;62.90
14901;DHT22;7542;49.078;9.194;2022-09-13T04:11:55;19.10;63.30
14901;DHT22;7542;49.078;9.194;2022-09-13T04:12:58;20.80;64.20
14901;DHT22;7542;49.078;9.194;2022-09-13T04:14:00;21.10;64.50
14901;DHT22;7542;49.078;9.194;2022-09-13T04:15:04;18.20;62.70
14901;DHT22;7542;49.078;9.194;2022-09-13T04:16:07;18.10;62.70
14901;DHT22;7542;49.078;9.194;2022-09-13T04:17:10;18.30;62.80
14901;DHT22;7542;49.078;9.194;2022-09-13T04:18:13;21.60;64.70
14901;DHT22;7542;49.078;9.194;2022-09-13T04:19:15;18.30;62.80
14901;DHT22;7542;49.078;9.194;2022-09-13T04:20:17;20.00;63.80
14901;DHT22;7542;49.078;9.194;2022-09-13T04:21:19;20.80;64.30
14901;DHT22;7542;49.078;9.194;2022-09-13T04:22:21;18.30;62.90
14901;DHT22;7542;49.078;9.194;2022-09-13T04:23:24;18.20;62.80
14901;DHT22;7542;49.078;9.194;2022-09-13T04:24:28;21.50;64.90
14901;DHT22;7542;49.078;9.194;2022-09-13T04:25:31;18.30;63.00
14901;DHT22;7542;49.078;9.194;2022-09-13T04:26:33;18.20;62.80
14901;DHT22;7542;49.078;9.194;2022-09-13T04:27:36;20.90;64.50
14901;DHT22;7542;49.078;9.194;2022-09-13T04:28:37;18.30;63.00
14901;DHT22;7542;49.078;9.194;2022-09-13T04:29:39;18.30;63.00
14901;DHT22;7542;49.078;9.194;2022-09-13T04:30:48;18.20;62.80
14901;DHT22;7542;49.078;9.194;2022-09-13T04:31:52;18.20;62.90
14901;DHT22;7542;49.078;9.194;2022-09-13T04:32:55;21.90;65.10
14901;DHT22;7542;49.078;9.194;2022-09-13T04:33:57;18.20;62.90
14901;DHT22;7542;49.078;9.194;2022-09-13T04:35:00;18.20;62.90
14901;DHT22;7542;49.078;9.194;2022-09-13T04:36:02;18.20;62.90
14901;DHT22;7542;49.078;9.194;2022-09-13T04:37:04;18.10;63.00
14901;DHT22;7542;49.078;9.194;2022-09-13T04:38:06;20.70;64.50
14901;DHT22;7542;49.078;9.194;2022-09-13T04:39:09;19.10;63.60
14901;DHT22;7542;49.078;9.194;2022-09-13T04:40:14;21.50;65.20
14901;DHT22;7542;49.078;9.194;2022-09-13T04:41:16;18.20;63.20
14901;DHT22;7542;49.078;9.194;2022-09-13T04:42:18;22.30;65.70
14901;DHT22;7542;49.078;9.194;2022-09-13T04:43:20;18.20;63.30
14901;DHT22;7542;49.078;9.194;2022-09-13T04:44:22;21.10;65.20
14901;DHT22;7542;49.078;9.194;2022-09-13T04:45:25;18.20;63.50
14901;DHT22;7542;49.078;9.194;2022-09-13T04:46:27;18.20;63.50
14901;DHT22;7542;49.078;9.194;2022-09-13T04:47:30;19.90;64.60
14901;DHT22;7542;49.078;9.194;2022-09-13T04:48:31;20.10;64.70
14901;DHT22;7542;49.078;9.194;2022-09-13T04:49:33;19.50;64.40
14901;DHT22;7542;49.078;9.194;2022-09-13T04:50:35;18.60;63.80
14901;DHT22;7542;49.078;9.194;2022-09-13T04:51:36;20.10;64.90
14901;DHT22;7542;49.078;9.194;2022-09-13T04:52:38;18.10;63.70
14901;DHT22;7542;49.078;9.194;2022-09-13T04:53:40;18.10;63.70
14901;DHT22;7542;49.078;9.194;2022-09-13T04:54:42;18.30;63.90
14901;DHT22;7542;49.078;9.194;2022-09-13T04:55:44;20.00;64.90
14901;DHT22;7542;49.078;9.194;2022-09-13T04:56:45;18.10;63.90
14901;DHT22;7542;49.078;9.194;2022-09-13T04:57:52;18.10;64.10
14901;DHT22;7542;49.078;9.194;2022-09-13T04:58:55;21.00;65.90
14901;DHT22;7542;49.078;9.194;2022-09-13T04:59:56;20.90;66.00
14901;DHT22;7542;49.078;9.194;2022-09-13T05:01:03;17.90;64.20
14901;DHT22;7542;49.078;9.194;2022-09-13T05:02:06;18.00;64.20
14901;DHT22;7542;49.078;9.194;2022-09-13T05:03:08;21.30;66.20
14901;DHT22;7542;49.078;9.194;2022-09-13T05:04:09;20.10;65.60
14901;DHT22;7542;49.078;9.194;2022-09-13T05:05:11;18.90;64.80
14901;DHT22;7542;49.078;9.194;2022-09-13T05:06:15;18.00;64.20
14901;DHT22;7542;49.078;9.194;2022-09-13T05:07:21;17.80;64.10
14901;DHT22;7542;49.078;9.194;2022-09-13T05:08:23;21.50;66.40
14901;DHT22;7542;49.078;9.194;2022-09-13T05:09:24;18.70;64.80
14901;DHT22;7542;49.078;9.194;2022-09-13T05:10:26;21.60;66.60
14901;DHT22;7542;49.078;9.194;2022-09-13T05:11:28;18.00;64.40
14901;DHT22;7542;49.078;9.194;2022-09-13T05:12:30;19.10;65.20
14901;DHT22;7542;49.078;9.194;2022-09-13T05:13:32;18.30;64.80
14901;DHT22;7542;49.078;9.194;2022-09-13T05:14:34;17.90;64.60
14901;DHT22;7542;49.078;9.194;2022-09-13T05:15:36;20.60;66.20
14901;DHT22;7542;49.078;9.194;2022-09-13T05:16:38;21.80;67.00
14901;DHT22;7542;49.078;9.194;2022-09-13T05:17:40;17.80;64.60
14901;DHT22;7542;49.078;9.194;2022-09-13T05:18:42;17.80;64.70
14901;DHT22;7542;49.078;9.194;2022-09-13T05:19:45;20.30;66.20
14901;DHT22;7542;49.078;9.194;2022-09-13T05:20:48;22.60;67.60
14901;DHT22;7542;49.078;9.194;2022-09-13T05:21:50;21.30;66.90
14901;DHT22;7542;49.078;9.194;2022-09-13T05:22:51;17.90;64.90
14901;DHT22;7542;49.078;9.194;2022-09-13T05:23:54;17.90;64.90
14901;DHT22;7542;49.078;9.194;2022-09-13T05:24:57;18.80;65.40
14901;DHT22;7542;49.078;9.194;2022-09-13T05:26:03;17.90;64.90
14901;DHT22;7542;49.078;9.194;2022-09-13T05:27:06;20.30;66.40
14901;DHT22;7542;49.078;9.194;2022-09-13T05:28:07;19.80;66.00
14901;DHT22;7542;49.078;9.194;2022-09-13T05:29:09;19.00;65.60
14901;DHT22;7542;49.078;9.194;2022-09-13T05:30:11;17.80;64.90
14901;DHT22;7542;49.078;9.194;2022-09-13T05:31:17;17.90;65.10
14901;DHT22;7542;49.078;9.194;2022-09-13T05:32:21;17.90;65.10
14901;DHT22;7542;49.078;9.194;2022-09-13T05:33:31;20.30;66.60
14901;DHT22;7542;49.078;9.194;2022-09-13T05:34:37;21.30;67.50
14901;DHT22;7542;49.078;9.194;2022-09-13T05:35:39;17.90;65.50
14901;DHT22;7542;49.078;9.194;2022-09-13T05:36:41;17.90;65.40
14901;DHT22;7542;49.078;9.194;2022-09-13T05:37:44;17.90;65.80
14901;DHT22;7542;49.078;9.194;2022-09-13T05:38:45;17.80;65.60
14901;DHT22;7542;49.078;9.194;2022-09-13T05:39:47;21.10;67.50
14901;DHT22;7542;49.078;9.194;2022-09-13T05:41:09;21.00;67.50
14901;DHT22;7542;49.078;9.194;2022-09-13T05:42:10;17.70;65.40
14901;DHT22;7542;49.078;9.194;2022-09-13T05:43:13;17.70;65.60
14901;DHT22;7542;49.078;9.194;2022-09-13T05:44:15;17.80;65.70
14901;DHT22;7542;49.078;9.194;2022-09-13T05:45:17;19.00;66.30
14901;DHT22;7542;49.078;9.194;2022-09-13T05:46:20;21.20;67.70
14901;DHT22;7542;49.078;9.194;2022-09-13T05:47:22;18.80;66.40
14901;DHT22;7542;49.078;9.194;2022-09-13T05:48:24;20.80;67.50
14901;DHT22;7542;49.078;9.194;2022-09-13T05:49:26;20.80;67.70
14901;DHT22;7542;49.078;9.194;2022-09-13T05:50:28;18.80;66.60
14901;DHT22;7542;49.078;9.194;2022-09-13T05:51:49;17.80;66.00
14901;DHT22;7542;49.078;9.194;2022-09-13T05:52:52;20.10;67.40
14901;DHT22;7542;49.078;9.194;2022-09-13T05:53:57;17.70;66.00
14901;DHT22;7542;49.078;9.194;2022-09-13T05:54:59;17.70;66.00
14901;DHT22;7542;49.078;9.194;2022-09-13T05:56:01;20.30;67.50
14901;DHT22;7542;49.078;9.194;2022-09-13T05:57:04;17.70;66.00
14901;DHT22;7542;49.078;9.194;2022-09-13T05:58:05;17.80;66.00
14901;DHT22;7542;49.078;9.194;2022-09-13T05:59:11;17.80;66.00
14901;DHT22;7542;49.078;9.194;2022-09-13T06:00:15;17.80;66.00
14901;DHT22;7542;49.078;9.194;2022-09-13T06:01:19;17.80;66.00
14901;DHT22;7542;49.078;9.194;2022-09-13T06:02:22;17.80;66.00
14901;DHT22;7542;49.078;9.194;2022-09-13T06:03:24;20.30;67.50
14901;DHT22;7542;49.078;9.194;2022-09-13T06:04:26;17.70;66.00
14901;DHT22;7542;49.078;9.194;2022-09-13T06:05:28;17.80;66.00
14901;DHT22;7542;49.078;9.194;2022-09-13T06:06:33;22.30;68.70
14901;DHT22;7542;49.078;9.194;2022-09-13T06:07:38;17.80;66.00
14901;DHT22;7542;49.078;9.194;2022-09-13T06:08:42;18.10;66.20
14901;DHT22;7542;49.078;9.194;2022-09-13T06:09:44;17.80;66.00
14901;DHT22;7542;49.078;9.194;2022-09-13T06:10:55;17.80;66.00
14901;DHT22;7542;49.078;9.194;2022-09-13T06:12:07;17.80;66.00
14901;DHT22;7542;49.078;9.194;2022-09-13T06:13:09;17.80;66.00
14901;DHT22;7542;49.078;9.194;2022-09-13T06:14:11;17.70;66.00
14901;DHT22;7542;49.078;9.194;2022-09-13T06:15:13;17.90;66.10
14901;DHT22;7542;49.078;9.194;2022-09-13T06:16:15;17.80;66.00
14901;DHT22;7542;49.078;9.194;2022-09-13T06:17:17;17.80;66.00
14901;DHT22;7542;49.078;9.194;2022-09-13T06:18:20;17.80;66.00
14901;DHT22;7542;49.078;9.194;2022-09-13T06:19:21;17.80;66.00
14901;DHT22;7542;49.078;9.194;2022-09-13T06:20:23;19.90;67.30
14901;DHT22;7542;49.078;9.194;2022-09-13T06:21:25;20.40;67.50
14901;DHT22;7542;49.078;9.194;2022-09-13T06:22:29;20.90;67.90
14901;DHT22;7542;49.078;9.194;2022-09-13T06:23:34;17.90;66.20
14901;DHT22;7542;49.078;9.194;2022-09-13T06:24:36;21.30;68.30
14901;DHT22;7542;49.078;9.194;2022-09-13T06:25:38;20.30;68.00
14901;DHT22;7542;49.078;9.194;2022-09-13T06:26:40;17.90;66.80
14901;DHT22;7542;49.078;9.194;2022-09-13T06:27:42;20.40;68.40
14901;DHT22;7542;49.078;9.194;2022-09-13T06:28:52;17.90;67.00
14901;DHT22;7542;49.078;9.194;2022-09-13T06:29:55;21.70;69.40
14901;DHT22;7542;49.078;9.194;2022-09-13T06:31:04;20.80;68.90
14901;DHT22;7542;49.078;9.194;2022-09-13T06:32:07;21.20;69.20
14901;DHT22;7542;49.078;9.194;2022-09-13T06:33:09;19.90;68.80
14901;DHT22;7542;49.078;9.194;2022-09-13T06:34:11;21.10;69.50
14901;DHT22;7542;49.078;9.194;2022-09-13T06:35:15;18.00;67.90
14901;DHT22;7542;49.078;9.194;2022-09-13T06:36:18;19.20;68.70
14901;DHT22;7542;49.078;9.194;2022-09-13T06:37:20;17.90;68.00
14901;DHT22;7542;49.078;9.194;2022-09-13T06:38:22;18.20;68.20
14901;DHT22;7542;49.078;9.194;2022-09-13T06:39:24;19.60;69.20
14901;DHT22;7542;49.078;9.194;2022-09-13T06:40:26;17.90;68.30
14901;DHT22;7542;49.078;9.194;2022-09-13T06:41:27;20.30;69.90
14901;DHT22;7542;49.078;9.194;2022-09-13T06:42:31;18.00;68.30
14901;DHT22;7542;49.078;9.194;2022-09-13T06:43:34;20.30;69.70
14901;DHT22;7542;49.078;9.194;2022-09-13T06:44:37;20.90;70.10
14901;DHT22;7542;49.078;9.194;2022-09-13T06:45:38;17.90;68.30
14901;DHT22;7542;49.078;9.194;2022-09-13T06:46:41;19.40;69.00
14901;DHT22;7542;49.078;9.194;2022-09-13T06:47:43;18.00;68.20
14901;DHT22;7542;49.078;9.194;2022-09-13T06:48:45;18.30;68.50
14901;DHT22;7542;49.078;9.194;2022-09-13T06:49:48;21.30;70.60
14901;DHT22;7542;49.078;9.194;2022-09-13T06:50:50;18.00;68.40
14901;DHT22;7542;49.078;9.194;2022-09-13T06:51:52;18.00;68.60
14901;DHT22;7542;49.078;9.194;2022-09-13T06:52:55;18.00;68.70
14901;DHT22;7542;49.078;9.194;2022-09-13T06:53:58;18.00;68.70
14901;DHT22;7542;49.078;9.194;2022-09-13T06:55:00;18.00;68.60
14901;DHT22;7542;49.078;9.194;2022-09-13T06:57:08;18.00;68.50
14901;DHT22;7542;49.078;9.194;2022-09-13T06:58:10;19.50;69.30
14901;DHT22;7542;49.078;9.194;2022-09-13T06:59:12;18.00;68.50
14901;DHT22;7542;49.078;9.194;2022-09-13T07:00:14;18.00;68.60
14901;DHT22;7542;49.078;9.194;2022-09-13T07:01:21;18.00;68.70
14901;DHT22;7542;49.078;9.194;2022-09-13T07:02:26;19.20;69.30
14901;DHT22;7542;49.078;9.194;2022-09-13T07:03:28;18.00;68.70
14901;DHT22;7542;49.078;9.194;2022-09-13T07:04:30;19.80;69.70
14901;DHT22;7542;49.078;9.194;2022-09-13T07:05:31;22.10;71.10
14901;DHT22;7542;49.078;9.194;2022-09-13T07:06:39;18.10;68.60
14901;DHT22;7542;49.078;9.194;2022-09-13T07:07:45;16.50;67.60
14901;DHT22;7542;49.078;9.194;2022-09-13T07:08:49;20.80;70.10
14901;DHT22;7542;49.078;9.194;2022-09-13T07:09:52;21.40;70.30
14901;DHT22;7542;49.078;9.194;2022-09-13T07:10:56;18.10;68.20
14901;DHT22;7542;49.078;9.194;2022-09-13T07:11:58;18.10;68.30
14901;DHT22;7542;49.078;9.194;2022-09-13T07:13:01;19.30;69.00
14901;DHT22;7542;49.078;9.194;2022-09-13T07:14:02;18.10;68.20
14901;DHT22;7542;49.078;9.194;2022-09-13T07:15:07;18.20;68.10
14901;DHT22;7542;49.078;9.194;2022-09-13T07:16:10;18.20;68.10
14901;DHT22;7542;49.078;9.194;2022-09-13T07:17:12;18.20;68.40
14901;DHT22;7542;49.078;9.194;2022-09-13T07:18:14;19.00;68.60
14901;DHT22;7542;49.078;9.194;2022-09-13T07:19:22;19.60;68.90
14901;DHT22;7542;49.078;9.194;2022-09-13T07:20:26;18.30;68.30
14901;DHT22;7542;49.078;9.194;2022-09-13T07:21:28;18.70;68.60
14901;DHT22;7542;49.078;9.194;2022-09-13T07:22:30;20.40;69.60
14901;DHT22;7542;49.078;9.194;2022-09-13T07:23:33;18.30;68.50
14901;DHT22;7542;49.078;9.194;2022-09-13T07:24:36;21.00;69.90
14901;DHT22;7542;49.078;9.194;2022-09-13T07:25:37;18.30;68.40
14901;DHT22;7542;49.078;9.194;2022-09-13T07:26:39;18.30;68.30
14901;DHT22;7542;49.078;9.194;2022-09-13T07:27:41;18.30;68.30
14901;DHT22;7542;49.078;9.194;2022-09-13T07:28:44;21.40;70.40
14901;DHT22;7542;49.078;9.194;2022-09-13T07:29:48;19.90;69.50
14901;DHT22;7542;49.078;9.194;2022-09-13T07:30:50;18.40;68.80
14901;DHT22;7542;49.078;9.194;2022-09-13T07:31:53;18.40;68.70
14901;DHT22;7542;49.078;9.194;2022-09-13T07:32:55;18.50;68.70
14901;DHT22;7542;49.078;9.194;2022-09-13T07:33:59;19.30;69.40
14901;DHT22;7542;49.078;9.194;2022-09-13T07:35:06;18.50;68.70
14901;DHT22;7542;49.078;9.194;2022-09-13T07:36:09;20.40;69.50
14901;DHT22;7542;49.078;9.194;2022-09-13T07:37:12;18.90;68.60
14901;DHT22;7542;49.078;9.194;2022-09-13T07:38:14;20.00;69.70
14901;DHT22;7542;49.078;9.194;2022-09-13T07:39:16;20.00;69.70
14901;DHT22;7542;49.078;9.194;2022-09-13T07:40:23;20.30;69.80
14901;DHT22;7542;49.078;9.194;2022-09-13T07:41:26;21.30;70.40
14901;DHT22;7542;49.078;9.194;2022-09-13T07:42:30;20.40;69.70
14901;DHT22;7542;49.078;9.194;2022-09-13T07:43:32;18.40;68.50
14901;DHT22;7542;49.078;9.194;2022-09-13T07:44:36;18.70;68.70
14901;DHT22;7542;49.078;9.194;2022-09-13T07:45:40;21.50;70.20
14901;DHT22;7542;49.078;9.194;2022-09-13T07:46:42;18.70;68.60
14901;DHT22;7542;49.078;9.194;2022-09-13T07:47:44;22.20;70.60
14901;DHT22;7542;49.078;9.194;2022-09-13T07:48:47;20.20;69.30
14901;DHT22;7542;49.078;9.194;2022-09-13T07:49:50;21.70;70.30
14901;DHT22;7542;49.078;9.194;2022-09-13T07:51:00;18.70;68.60
14901;DHT22;7542;49.078;9.194;2022-09-13T07:52:02;18.80;68.90
14901;DHT22;7542;49.078;9.194;2022-09-13T07:53:04;18.80;68.40
14901;DHT22;7542;49.078;9.194;2022-09-13T07:54:13;23.00;70.80
14901;DHT22;7542;49.078;9.194;2022-09-13T07:55:17;18.90;68.40
14901;DHT22;7542;49.078;9.194;2022-09-13T07:56:21;18.90;68.50